Barking Sands Airport Kekaha US
ICAO: PHBK
IATA:
Category: Medium
Scheduled Services:

Elevation: 23 ft
TransAlt. 18000 ft.

Airport Communications:
HONOLULU CNTR:126.5
RANGE OUTRIDER:32.285
TWR:126.2
UNICOM:122.8

PHBK Zoom In..

If you have problems with the map follow the link
https://www.worldairports.se/pages/airport.php?
ICAO=PHBK

Runways:

(A) RW 16 length 6002 ft width 146 ft
---- / hdg 160

(B) RW 34 length 6002 ft width 146 ft
---- / hdg 340

Location; PHBK
Day. 25 / Time. 08.56 Zulu
* Altimeter: 30.09
* Temperature: 23° c. 73.4°f.
* Wind from: 010° Speed 09 kn.
Dewpoint: 18° c.
Visibility: 10 Statute Miles.
Clouds: Few 6000 ft.

PHBK 250856Z AUTO 01009KT 10SM FEW060 23/18 A3009 RMK AO2 SLP190 T02330178 50003


Wind From 010°
Speed 09 kn.

 
 
jpsmedia worldairports.se 2020   terms of use